Terminal Aerodrome Forecast
Issued by NWS Medford, OR

Home | Current Version | Previous Version | Text Only | Print | Product List | Glossary On
Versions: 1 2 3 4 5 6 7 8 9 10 11 12 13 14 15 16 17 18 19 20 21 22 23 24 25
986
FTUS46 KMFR 200044 AAA
TAFMFR
TAF AMD
KMFR 200044Z 2001/2024 00000KT P6SM SCT006 BKN120 OVC200
     FM200400 13005KT 6SM BR VCSH FEW006 BKN060 OVC100
     FM201000 15007KT 3SM -RA BR BKN010 BKN030 OVC050 WS020/21035KT
     FM201900 16007KT 4SM -RA BR BKN010 BKN035 OVC050=

USA.gov is the U.S. government's official web portal to all federal, state and local government web resources and services.